createdAt,value
2023-04-20T00:01:04.891Z,13.02
2023-04-20T00:03:31.714Z,14.55
2023-04-20T00:05:59.909Z,13.88
2023-04-20T00:08:27.320Z,13.18
2023-04-20T00:10:55.288Z,14.48
2023-04-20T00:13:21.947Z,16.42
2023-04-20T00:15:48.663Z,13.57
2023-04-20T00:18:15.498Z,14.18
2023-04-20T00:20:42.225Z,12.95
2023-04-20T00:23:08.902Z,12.77
2023-04-20T00:25:35.610Z,11.68
2023-04-20T00:28:02.261Z,13.25
2023-04-20T00:30:29.041Z,12.32
2023-04-20T00:32:55.795Z,13.88
2023-04-20T00:35:22.515Z,11.10
2023-04-20T00:37:49.202Z,12.18
2023-04-20T00:40:16.865Z,12.43
2023-04-20T00:42:43.529Z,12.00
2023-04-20T00:45:11.591Z,12.98
2023-04-20T00:47:38.815Z,12.23
2023-04-20T00:50:06.639Z,11.85
2023-04-20T00:52:33.597Z,11.82
2023-04-20T00:55:01.676Z,13.00
2023-04-20T00:57:28.876Z,11.48
2023-04-20T00:59:55.573Z,12.73
2023-04-20T01:02:22.298Z,11.23
2023-04-20T01:04:49.141Z,11.05
2023-04-20T01:07:16.058Z,10.88
2023-04-20T01:09:42.790Z,12.45
2023-04-20T01:12:10.184Z,12.05
2023-04-20T01:14:36.950Z,13.23
2023-04-20T01:17:03.644Z,13.02
2023-04-20T01:19:30.331Z,11.93
2023-04-20T01:21:58.536Z,12.15
2023-04-20T01:24:26.407Z,12.65
2023-04-20T01:26:57.949Z,13.38
2023-04-20T01:29:28.472Z,13.57
2023-04-20T01:31:56.653Z,16.75
2023-04-20T01:34:24.638Z,15.00
2023-04-20T01:36:51.427Z,15.55
2023-04-20T01:39:18.581Z,15.25
2023-04-20T01:41:45.624Z,17.05
2023-04-20T01:44:12.316Z,18.75
2023-04-20T01:46:39.788Z,19.67
2023-04-20T01:49:07.112Z,16.02
2023-04-20T01:51:37.497Z,14.77
2023-04-20T01:54:04.242Z,14.70
2023-04-20T01:56:30.935Z,14.60
2023-04-20T01:58:58.402Z,15.32
2023-04-20T02:01:25.193Z,16.35
2023-04-20T02:03:52.193Z,17.73
2023-04-20T02:06:20.296Z,14.95
2023-04-20T02:08:46.959Z,16.60
2023-04-20T02:11:13.882Z,16.25
2023-04-20T02:13:41.973Z,16.95
2023-04-20T02:16:08.684Z,15.68
2023-04-20T02:18:38.792Z,16.92
2023-04-20T02:21:07.080Z,20.95
2023-04-20T02:23:33.743Z,17.20
2023-04-20T02:26:00.381Z,19.38
2023-04-20T02:28:27.052Z,17.83
2023-04-20T02:30:53.942Z,19.00
2023-04-20T02:33:20.729Z,18.20
2023-04-20T02:35:47.990Z,20.63
2023-04-20T02:38:14.870Z,19.92
2023-04-20T02:40:41.549Z,19.40
2023-04-20T02:43:08.319Z,18.38
2023-04-20T02:45:35.073Z,21.35
2023-04-20T02:48:01.786Z,19.35
2023-04-20T02:50:28.512Z,19.05
2023-04-20T02:52:55.232Z,24.17
2023-04-20T02:55:21.901Z,21.55
2023-04-20T02:57:48.936Z,22.17
2023-04-20T03:00:17.159Z,20.65
2023-04-20T03:02:45.307Z,20.58
2023-04-20T03:05:13.675Z,22.73
2023-04-20T03:07:40.379Z,21.05
2023-04-20T03:10:07.797Z,20.90
2023-04-20T03:12:34.475Z,19.90
2023-04-20T03:15:01.177Z,21.48
2023-04-20T03:17:27.920Z,21.13
2023-04-20T03:19:54.625Z,20.48
2023-04-20T03:22:21.298Z,21.05
2023-04-20T03:24:51.925Z,23.90
2023-04-20T03:27:21.405Z,24.95
2023-04-20T03:29:48.107Z,23.88
2023-04-20T03:32:14.821Z,24.40
2023-04-20T03:34:42.759Z,28.45
2023-04-20T03:37:09.536Z,27.67
2023-04-20T03:39:43.585Z,29.10
2023-04-20T03:42:13.152Z,29.40
2023-04-20T03:44:39.843Z,32.30
2023-04-20T03:47:06.509Z,32.88
2023-04-20T03:49:34.093Z,36.90
2023-04-20T03:52:00.801Z,34.13
2023-04-20T03:54:27.505Z,32.92
2023-04-20T03:56:54.180Z,38.80
2023-04-20T03:59:20.920Z,36.63
2023-04-20T04:01:47.575Z,36.53
2023-04-20T04:04:15.906Z,34.45
2023-04-20T04:06:42.708Z,38.10
2023-04-20T04:09:10.494Z,37.25
2023-04-20T04:11:37.150Z,38.83
2023-04-20T04:14:05.053Z,37.67
2023-04-20T04:16:33.550Z,36.92
2023-04-20T04:19:03.864Z,38.40
2023-04-20T04:21:31.649Z,34.53
2023-04-20T04:24:02.550Z,41.80
2023-04-20T04:26:29.693Z,37.38
2023-04-20T04:28:56.382Z,37.08
2023-04-20T04:31:23.064Z,37.33
2023-04-20T04:33:50.092Z,37.85
2023-04-20T04:36:17.104Z,39.15
2023-04-20T04:38:44.226Z,39.88
2023-04-20T04:41:11.657Z,39.40
2023-04-20T04:43:39.588Z,39.05
2023-04-20T04:46:08.395Z,38.80
2023-04-20T04:48:36.869Z,40.00
2023-04-20T04:51:04.962Z,38.25
2023-04-20T04:53:31.862Z,36.72
2023-04-20T04:55:59.682Z,37.95
2023-04-20T04:58:26.492Z,38.03
2023-04-20T05:00:56.797Z,35.22
2023-04-20T05:03:23.704Z,41.28
2023-04-20T05:05:50.583Z,47.15
2023-04-20T05:08:17.262Z,38.80
2023-04-20T05:10:43.947Z,36.83
2023-04-20T05:13:10.644Z,38.63
2023-04-20T05:15:37.336Z,42.78
2023-04-20T05:18:04.424Z,39.65
2023-04-20T05:20:31.243Z,49.22
2023-04-20T05:22:57.915Z,44.00
2023-04-20T05:25:24.760Z,37.72
2023-04-20T05:27:51.431Z,40.55
2023-04-20T05:30:21.227Z,41.97
2023-04-20T05:32:52.332Z,40.63
2023-04-20T05:35:21.215Z,41.75
2023-04-20T05:37:48.224Z,38.50
2023-04-20T05:40:16.509Z,38.83
2023-04-20T05:42:44.030Z,39.28
2023-04-20T05:45:11.970Z,39.22
2023-04-20T05:47:42.463Z,39.25
2023-04-20T05:50:09.797Z,40.63
2023-04-20T05:52:36.521Z,40.13
2023-04-20T05:55:03.399Z,46.13
2023-04-20T05:57:30.065Z,43.53
2023-04-20T05:59:56.794Z,46.00
2023-04-20T06:02:23.639Z,43.35
2023-04-20T06:04:50.666Z,41.42
2023-04-20T06:07:17.424Z,38.20
2023-04-20T06:09:44.119Z,41.03
2023-04-20T06:12:12.110Z,41.08
2023-04-20T06:14:38.946Z,42.95
2023-04-20T06:17:05.758Z,36.67
2023-04-20T06:19:33.671Z,37.88
2023-04-20T06:22:01.260Z,38.40
2023-04-20T06:24:29.380Z,37.80
2023-04-20T06:26:57.352Z,39.03
2023-04-20T06:29:27.220Z,40.50
2023-04-20T06:31:57.655Z,34.33
2023-04-20T06:34:25.789Z,37.53
2023-04-20T06:36:53.904Z,35.53
2023-04-20T06:39:20.916Z,37.50
2023-04-20T06:41:47.605Z,39.35
2023-04-20T06:44:14.459Z,42.03
2023-04-20T06:46:41.201Z,39.88
2023-04-20T06:49:07.917Z,38.72
2023-04-20T06:51:34.643Z,35.53
2023-04-20T06:54:01.364Z,42.83
2023-04-20T06:56:28.035Z,36.08
2023-04-20T06:58:54.739Z,36.47
2023-04-20T07:01:21.510Z,36.42
2023-04-20T07:03:49.581Z,33.13
2023-04-20T07:06:18.791Z,36.80
2023-04-20T07:08:45.486Z,36.10
2023-04-20T07:11:12.158Z,35.58
2023-04-20T07:13:38.827Z,39.97
2023-04-20T07:16:05.802Z,35.88
2023-04-20T07:18:35.145Z,37.53
2023-04-20T07:21:02.287Z,38.90
2023-04-20T07:23:28.973Z,32.50
2023-04-20T07:25:55.610Z,35.15
2023-04-20T07:28:22.504Z,36.33
2023-04-20T07:30:49.744Z,31.33
2023-04-20T07:33:18.566Z,30.35
2023-04-20T07:35:45.244Z,28.17
2023-04-20T07:38:13.254Z,29.65
2023-04-20T07:40:42.230Z,29.13
2023-04-20T07:43:09.136Z,25.98
2023-04-20T07:45:35.852Z,26.95
2023-04-20T07:48:02.629Z,27.63
2023-04-20T07:50:29.384Z,28.55
2023-04-20T07:52:56.076Z,27.02
2023-04-20T07:55:22.733Z,31.75
2023-04-20T07:57:49.718Z,38.75
2023-04-20T08:00:18.354Z,29.75
2023-04-20T08:02:45.207Z,25.95
2023-04-20T08:05:12.186Z,26.90
2023-04-20T08:07:39.566Z,32.03
2023-04-20T08:10:07.148Z,27.60
2023-04-20T08:12:33.821Z,25.20
2023-04-20T08:15:00.547Z,27.75
2023-04-20T08:17:29.211Z,31.00
2023-04-20T08:19:56.002Z,25.52
2023-04-20T08:22:22.704Z,24.48
2023-04-20T08:24:50.927Z,27.23
2023-04-20T08:27:18.798Z,24.83
2023-04-20T08:29:45.727Z,24.42
2023-04-20T08:32:13.843Z,25.40
2023-04-20T08:34:42.052Z,24.40
2023-04-20T08:37:09.058Z,24.13
2023-04-20T08:39:38.168Z,24.85
2023-04-20T08:42:05.539Z,25.55
2023-04-20T08:44:32.327Z,24.88
2023-04-20T08:46:59.979Z,25.13
2023-04-20T08:49:28.497Z,26.88
2023-04-20T08:51:55.172Z,26.70
2023-04-20T08:54:23.608Z,29.98
2023-04-20T08:56:51.488Z,31.52
2023-04-20T08:59:18.193Z,28.00
2023-04-20T09:01:46.017Z,31.13
2023-04-20T09:04:23.863Z,29.48
2023-04-20T09:06:53.078Z,28.08
2023-04-20T09:09:22.672Z,30.80
2023-04-20T09:12:04.768Z,34.88
2023-04-20T09:14:46.296Z,32.08
2023-04-20T09:17:16.079Z,28.75
2023-04-20T09:19:44.863Z,31.88
2023-04-20T09:22:12.848Z,31.65
2023-04-20T09:24:41.310Z,31.88
2023-04-20T09:27:19.103Z,30.23
2023-04-20T09:30:02.208Z,31.35
2023-04-20T09:32:29.336Z,33.40
2023-04-20T09:34:57.000Z,28.35
2023-04-20T09:37:24.994Z,29.33
2023-04-20T09:39:51.723Z,28.25
2023-04-20T09:42:27.206Z,26.67
2023-04-20T09:45:00.175Z,26.95
2023-04-20T09:47:31.514Z,26.10
2023-04-20T09:50:14.651Z,24.55
2023-04-20T09:52:49.287Z,26.85
2023-04-20T09:55:16.926Z,28.02
2023-04-20T09:57:45.257Z,23.75
2023-04-20T10:00:22.365Z,25.25
2023-04-20T10:02:50.596Z,26.50
2023-04-20T10:05:20.149Z,22.42
2023-04-20T10:08:01.762Z,22.58
2023-04-20T10:10:29.915Z,22.13
2023-04-20T10:13:00.305Z,22.02
2023-04-20T10:15:42.530Z,19.02
2023-04-20T10:18:23.527Z,21.33
2023-04-20T10:20:51.954Z,19.83
2023-04-20T10:23:18.911Z,35.28
2023-04-20T10:25:59.248Z,19.33
2023-04-20T10:28:36.950Z,19.30
2023-04-20T10:31:03.846Z,19.45
2023-04-20T10:33:30.576Z,20.95
2023-04-20T10:35:58.521Z,21.40
2023-04-20T10:38:32.871Z,19.05
2023-04-20T10:41:13.365Z,20.38
2023-04-20T10:43:40.719Z,20.08
2023-04-20T10:46:19.939Z,19.88
2023-04-20T10:48:59.354Z,21.35
2023-04-20T10:51:26.189Z,21.05
2023-04-20T10:54:07.392Z,19.52
2023-04-20T10:56:45.911Z,26.75
2023-04-20T10:59:17.262Z,19.20
2023-04-20T11:01:45.706Z,19.02
2023-04-20T11:04:13.838Z,21.52
2023-04-20T11:06:44.737Z,19.50
2023-04-20T11:09:21.972Z,21.58
2023-04-20T11:12:08.530Z,19.13
2023-04-20T11:14:50.020Z,18.95
2023-04-20T11:17:16.868Z,21.58
2023-04-20T11:19:43.609Z,21.25
2023-04-20T11:22:21.633Z,19.15
2023-04-20T11:24:48.349Z,18.73
2023-04-20T11:27:21.318Z,20.60
2023-04-20T11:29:58.518Z,19.70
2023-04-20T11:32:26.638Z,19.50
2023-04-20T11:35:08.304Z,22.83
2023-04-20T11:37:46.511Z,19.42
2023-04-20T11:40:13.481Z,19.00
2023-04-20T11:42:40.303Z,19.48
2023-04-20T11:45:07.556Z,25.15
2023-04-20T11:47:34.271Z,25.77
2023-04-20T11:50:01.011Z,24.08
2023-04-20T11:52:27.697Z,23.23
2023-04-20T11:54:54.431Z,23.08
2023-04-20T11:57:21.121Z,22.65
2023-04-20T11:59:49.114Z,19.35
2023-04-20T12:02:17.066Z,19.40
2023-04-20T12:04:48.369Z,24.48
2023-04-20T12:07:18.886Z,24.63
2023-04-20T12:09:48.191Z,20.10
2023-04-20T12:12:14.909Z,19.77
2023-04-20T12:14:41.581Z,22.50
2023-04-20T12:17:08.413Z,20.20
2023-04-20T12:19:35.137Z,20.65
2023-04-20T12:22:01.949Z,19.88
2023-04-20T12:24:28.818Z,19.98
2023-04-20T12:26:55.550Z,19.05
2023-04-20T12:29:22.215Z,19.25
2023-04-20T12:31:49.786Z,19.50
2023-04-20T12:34:18.750Z,18.20
2023-04-20T12:36:47.745Z,17.25
2023-04-20T12:39:14.594Z,16.77
2023-04-20T12:41:41.725Z,20.55
2023-04-20T12:44:10.731Z,16.63
2023-04-20T12:46:38.240Z,25.08
2023-04-20T12:49:05.048Z,18.63
2023-04-20T12:51:31.774Z,18.25
2023-04-20T12:53:58.544Z,16.10
2023-04-20T12:56:25.293Z,21.25
2023-04-20T12:58:51.945Z,22.77
2023-04-20T13:01:18.757Z,18.80
2023-04-20T13:03:46.803Z,24.08
2023-04-20T13:06:14.605Z,21.83
2023-04-20T13:08:42.434Z,22.63
2023-04-20T13:11:11.490Z,21.80
2023-04-20T13:13:39.402Z,21.83
2023-04-20T13:16:06.341Z,23.58
2023-04-20T13:18:33.801Z,20.52
2023-04-20T13:21:00.737Z,19.92
2023-04-20T13:23:27.503Z,18.60
2023-04-20T13:25:54.297Z,21.50
2023-04-20T13:28:20.942Z,19.08
2023-04-20T13:30:47.821Z,18.65
2023-04-20T13:33:14.641Z,18.67
2023-04-20T13:35:41.327Z,20.33
2023-04-20T13:38:08.071Z,17.77
2023-04-20T13:40:34.831Z,21.30
2023-04-20T13:43:01.564Z,18.17
2023-04-20T13:45:28.375Z,18.10
2023-04-20T13:47:55.735Z,21.42
2023-04-20T13:50:23.690Z,16.60
2023-04-20T13:52:51.187Z,19.08
2023-04-20T13:55:17.964Z,17.50
2023-04-20T13:57:44.633Z,19.38
2023-04-20T14:00:15.081Z,20.42
2023-04-20T14:02:41.906Z,28.13
2023-04-20T14:05:08.940Z,18.98
2023-04-20T14:07:35.712Z,17.48
2023-04-20T14:10:02.481Z,20.90
2023-04-20T14:12:29.390Z,18.58
2023-04-20T14:14:59.974Z,19.13
2023-04-20T14:17:26.843Z,19.88
2023-04-20T14:19:53.815Z,21.17
2023-04-20T14:22:20.498Z,20.65
2023-04-20T14:24:48.292Z,19.15
2023-04-20T14:27:16.168Z,18.23
2023-04-20T14:29:43.724Z,16.17
2023-04-20T14:32:12.350Z,18.33
2023-04-20T14:34:39.026Z,18.55
2023-04-20T14:37:06.833Z,17.92
2023-04-20T14:39:33.570Z,17.33
2023-04-20T14:42:00.322Z,15.90
2023-04-20T14:44:27.139Z,16.35
2023-04-20T14:46:53.949Z,13.93
2023-04-20T14:49:20.701Z,15.93
2023-04-20T14:51:47.405Z,16.80
2023-04-20T14:54:14.164Z,13.00
2023-04-20T14:56:40.914Z,14.60
2023-04-20T14:59:07.808Z,14.57
2023-04-20T15:01:34.519Z,15.57
2023-04-20T15:04:01.512Z,18.90
2023-04-20T15:06:28.395Z,14.45
2023-04-20T15:08:55.412Z,11.80
2023-04-20T15:11:22.366Z,14.18
2023-04-20T15:13:49.441Z,14.38
2023-04-20T15:16:16.214Z,15.13
2023-04-20T15:18:43.263Z,11.93
2023-04-20T15:21:09.968Z,13.65
2023-04-20T15:23:39.724Z,12.02
2023-04-20T15:26:07.715Z,10.52
2023-04-20T15:28:34.494Z,12.02
2023-04-20T15:31:01.194Z,12.85
2023-04-20T15:33:27.846Z,12.75
2023-04-20T15:35:54.535Z,12.45
2023-04-20T15:38:21.198Z,11.93
2023-04-20T15:40:49.153Z,13.00
2023-04-20T15:43:16.986Z,10.77
2023-04-20T15:45:45.132Z,16.77
2023-04-20T15:48:12.634Z,11.50
2023-04-20T15:50:40.645Z,13.00
2023-04-20T15:53:07.469Z,10.23
2023-04-20T15:55:39.173Z,10.00
2023-04-20T15:58:05.954Z,12.90
2023-04-20T16:00:32.679Z,9.23
2023-04-20T16:02:59.530Z,13.32
2023-04-20T16:05:26.602Z,11.48
2023-04-20T16:07:53.395Z,9.82
2023-04-20T16:10:20.490Z,10.60
2023-04-20T16:12:47.641Z,10.50
2023-04-20T16:15:14.416Z,9.40
2023-04-20T16:17:41.134Z,12.02
2023-04-20T16:20:08.777Z,14.77
2023-04-20T16:22:35.517Z,12.02
2023-04-20T16:25:02.258Z,14.43
2023-04-20T16:27:29.462Z,18.02
2023-04-20T16:29:56.260Z,13.73
2023-04-20T16:32:24.332Z,12.32
2023-04-20T16:34:51.163Z,10.52
2023-04-20T16:37:27.856Z,12.40
2023-04-20T16:40:04.233Z,11.38
2023-04-20T16:42:33.356Z,11.70
2023-04-20T16:45:03.072Z,12.82
2023-04-20T16:47:32.186Z,12.70
2023-04-20T16:49:58.979Z,15.85
2023-04-20T16:52:25.731Z,10.40
2023-04-20T16:54:52.613Z,13.27
2023-04-20T16:57:19.271Z,13.27
2023-04-20T16:59:46.025Z,12.80
2023-04-20T17:02:12.893Z,11.93
2023-04-20T17:04:39.840Z,16.13
2023-04-20T17:07:06.605Z,9.60
2023-04-20T17:09:33.618Z,11.18
2023-04-20T17:12:00.522Z,11.13
2023-04-20T17:14:27.314Z,13.45
2023-04-20T17:16:54.134Z,12.40
2023-04-20T17:19:21.025Z,14.18
2023-04-20T17:21:47.790Z,10.23
2023-04-20T17:24:16.262Z,12.05
2023-04-20T17:26:44.968Z,12.77
2023-04-20T17:29:14.770Z,12.02
2023-04-20T17:31:44.724Z,15.15
2023-04-20T17:34:16.414Z,11.55
2023-04-20T17:36:43.165Z,13.52
2023-04-20T17:39:09.880Z,14.77
2023-04-20T17:41:36.665Z,15.40
2023-04-20T17:44:03.348Z,22.88
2023-04-20T17:46:30.254Z,15.82
2023-04-20T17:48:57.073Z,15.68
2023-04-20T17:51:23.829Z,18.10
2023-04-20T17:53:50.531Z,19.83
2023-04-20T17:56:17.282Z,19.17
2023-04-20T17:58:44.206Z,15.00
2023-04-20T18:01:11.100Z,14.90
2023-04-20T18:03:38.067Z,15.48
2023-04-20T18:06:04.909Z,12.90
2023-04-20T18:08:31.672Z,16.88
2023-04-20T18:10:58.341Z,16.33
2023-04-20T18:13:26.355Z,18.35
2023-04-20T18:15:55.135Z,16.75
2023-04-20T18:18:23.763Z,15.80
2023-04-20T18:20:51.784Z,14.50
2023-04-20T18:23:21.843Z,15.73
2023-04-20T18:25:48.546Z,17.55
2023-04-20T18:28:16.056Z,13.18
2023-04-20T18:30:42.714Z,13.60
2023-04-20T18:33:09.474Z,16.38
2023-04-20T18:35:36.308Z,17.38
2023-04-20T18:38:03.046Z,14.48
2023-04-20T18:40:29.820Z,12.90
2023-04-20T18:42:56.806Z,15.65
2023-04-20T18:45:23.744Z,15.82
2023-04-20T18:47:51.795Z,13.15
2023-04-20T18:50:18.678Z,15.85
2023-04-20T18:52:46.686Z,14.57
2023-04-20T18:55:14.808Z,13.43
2023-04-20T18:57:42.855Z,15.55
2023-04-20T19:00:09.934Z,17.13
2023-04-20T19:02:38.094Z,15.13
2023-04-20T19:05:05.309Z,13.65
2023-04-20T19:07:34.240Z,13.95
2023-04-20T19:10:01.105Z,16.92
2023-04-20T19:12:28.094Z,16.65
2023-04-20T19:14:54.760Z,12.80
2023-04-20T19:17:21.507Z,12.02
2023-04-20T19:19:48.258Z,18.30
2023-04-20T19:22:15.121Z,15.13
2023-04-20T19:24:41.864Z,16.00
2023-04-20T19:27:08.499Z,17.00
2023-04-20T19:29:35.417Z,17.77
2023-04-20T19:32:02.597Z,14.63
2023-04-20T19:34:29.380Z,15.02
2023-04-20T19:36:56.078Z,18.77
2023-04-20T19:39:22.751Z,15.05
2023-04-20T19:41:50.484Z,15.98
2023-04-20T19:44:17.373Z,14.05
2023-04-20T19:46:51.279Z,17.52
2023-04-20T19:49:19.189Z,16.45
2023-04-20T19:51:48.556Z,15.80
2023-04-20T19:54:15.304Z,20.60
2023-04-20T19:56:42.000Z,15.50
2023-04-20T19:59:08.731Z,18.25
2023-04-20T20:01:35.481Z,18.38
2023-04-20T20:04:02.327Z,15.52
2023-04-20T20:06:29.302Z,16.98
2023-04-20T20:08:55.996Z,13.77
2023-04-20T20:11:22.679Z,18.15
2023-04-20T20:13:50.913Z,15.48
2023-04-20T20:16:17.832Z,15.95
2023-04-20T20:18:44.625Z,17.20
2023-04-20T20:21:12.468Z,17.75
2023-04-20T20:23:40.377Z,13.80
2023-04-20T20:26:08.557Z,15.52
2023-04-20T20:28:45.013Z,14.32
2023-04-20T20:31:15.221Z,17.85
2023-04-20T20:33:43.183Z,15.10
2023-04-20T20:36:10.051Z,12.75
2023-04-20T20:38:36.814Z,13.07
2023-04-20T20:41:03.546Z,14.68
2023-04-20T20:43:30.190Z,14.90
2023-04-20T20:45:56.952Z,12.75
2023-04-20T20:48:23.833Z,15.02
2023-04-20T20:50:50.495Z,12.30
2023-04-20T20:53:18.435Z,15.60
2023-04-20T20:55:45.092Z,17.45
2023-04-20T20:58:12.856Z,13.52
2023-04-20T21:00:39.743Z,14.85
2023-04-20T21:03:08.327Z,14.57
2023-04-20T21:05:35.846Z,13.45
2023-04-20T21:08:05.917Z,15.75
2023-04-20T21:10:32.593Z,14.85
2023-04-20T21:12:59.293Z,16.58
2023-04-20T21:15:25.969Z,18.73
2023-04-20T21:17:52.693Z,14.82
2023-04-20T21:20:19.508Z,13.32
2023-04-20T21:22:46.234Z,19.75
2023-04-20T21:25:12.982Z,16.55
2023-04-20T21:27:39.825Z,15.65
2023-04-20T21:30:07.075Z,20.75
2023-04-20T21:32:33.804Z,19.80
2023-04-20T21:35:00.487Z,16.25
2023-04-20T21:37:27.360Z,16.15
2023-04-20T21:39:54.019Z,18.02
2023-04-20T21:42:20.713Z,19.05
2023-04-20T21:44:48.828Z,19.00
2023-04-20T21:47:15.586Z,17.00
2023-04-20T21:49:45.548Z,18.10
2023-04-20T21:52:12.308Z,17.70
2023-04-20T21:54:41.132Z,20.67
2023-04-20T21:57:07.856Z,20.77
2023-04-20T21:59:40.081Z,17.00
2023-04-20T22:02:06.879Z,20.35
2023-04-20T22:04:33.856Z,14.88
2023-04-20T22:07:00.697Z,17.08
2023-04-20T22:09:27.487Z,21.65
2023-04-20T22:11:54.253Z,19.25
2023-04-20T22:14:21.018Z,19.42
2023-04-20T22:16:47.770Z,24.55
2023-04-20T22:19:15.610Z,21.88
2023-04-20T22:21:43.798Z,17.80
2023-04-20T22:24:12.026Z,22.75
2023-04-20T22:26:39.943Z,25.05
2023-04-20T22:29:07.683Z,23.48
2023-04-20T22:31:35.919Z,19.08
2023-04-20T22:34:05.024Z,22.17
2023-04-20T22:36:32.061Z,21.52
2023-04-20T22:38:58.817Z,20.67
2023-04-20T22:41:25.512Z,25.10
2023-04-20T22:43:52.248Z,19.67
2023-04-20T22:46:19.344Z,23.25
2023-04-20T22:48:48.381Z,23.13
2023-04-20T22:51:16.211Z,17.63
2023-04-20T22:53:43.431Z,19.63
2023-04-20T22:56:10.495Z,19.65
2023-04-20T22:58:37.196Z,20.52
2023-04-20T23:01:03.994Z,22.70
2023-04-20T23:03:31.049Z,16.33
2023-04-20T23:05:57.988Z,22.65
2023-04-20T23:08:25.700Z,17.15
2023-04-20T23:10:52.895Z,21.50
2023-04-20T23:13:22.117Z,20.05
2023-04-20T23:15:49.536Z,21.40
2023-04-20T23:18:25.540Z,22.00
2023-04-20T23:20:55.827Z,22.02
2023-04-20T23:23:23.809Z,26.27
2023-04-20T23:25:50.531Z,16.35
2023-04-20T23:28:17.303Z,24.83
2023-04-20T23:30:44.019Z,22.80
2023-04-20T23:33:10.667Z,22.73
2023-04-20T23:35:37.574Z,21.83
2023-04-20T23:38:04.345Z,19.23
2023-04-20T23:40:31.253Z,20.27
2023-04-20T23:42:57.961Z,23.30
2023-04-20T23:45:24.708Z,20.48
2023-04-20T23:47:51.495Z,20.40
2023-04-20T23:50:19.641Z,18.52
2023-04-20T23:52:46.335Z,19.05
2023-04-20T23:55:14.560Z,23.92
2023-04-20T23:57:41.364Z,19.15
